createdAt,value
2023-12-18T00:01:02.790Z,42.80
2023-12-18T00:03:31.339Z,38.00
2023-12-18T00:05:58.774Z,44.75
2023-12-18T00:08:26.110Z,31.15
2023-12-18T00:10:53.762Z,47.22
2023-12-18T00:13:21.025Z,42.60
2023-12-18T00:15:48.426Z,40.30
2023-12-18T00:18:16.021Z,34.55
2023-12-18T00:20:43.389Z,36.20
2023-12-18T00:23:10.655Z,31.52
2023-12-18T00:25:39.473Z,34.60
2023-12-18T00:28:07.142Z,33.83
2023-12-18T00:30:34.659Z,35.97
2023-12-18T00:33:02.591Z,37.38
2023-12-18T00:35:29.867Z,37.67
2023-12-18T00:37:57.289Z,41.67
2023-12-18T00:40:24.532Z,36.30
2023-12-18T00:42:52.061Z,38.60
2023-12-18T00:45:19.402Z,37.30
2023-12-18T00:47:46.644Z,34.05
2023-12-18T00:50:14.145Z,35.72
2023-12-18T00:52:41.440Z,37.03
2023-12-18T00:55:09.006Z,38.20
2023-12-18T00:57:36.261Z,35.55
2023-12-18T01:00:03.968Z,33.60
2023-12-18T01:02:31.874Z,32.47
2023-12-18T01:04:59.311Z,37.42
2023-12-18T01:07:26.570Z,39.22
2023-12-18T01:09:57.654Z,37.30
2023-12-18T01:12:24.897Z,39.97
2023-12-18T01:14:52.297Z,38.67
2023-12-18T01:17:27.205Z,38.58
2023-12-18T01:22:27.212Z,32.75
2023-12-18T01:24:54.441Z,42.00
2023-12-18T01:27:21.680Z,33.88
2023-12-18T01:29:48.900Z,36.70
2023-12-18T01:32:16.158Z,36.30
2023-12-18T01:34:43.371Z,35.15
2023-12-18T01:37:10.603Z,35.75
2023-12-18T01:39:37.927Z,38.13
2023-12-18T01:42:05.449Z,33.92
2023-12-18T01:44:32.697Z,36.17
2023-12-18T01:47:00.052Z,40.25
2023-12-18T01:49:27.760Z,37.50
2023-12-18T01:51:55.212Z,34.85
2023-12-18T01:54:24.023Z,37.47
2023-12-18T01:56:56.065Z,35.40
2023-12-18T01:59:25.346Z,47.10
2023-12-18T02:01:53.339Z,34.55
2023-12-18T02:04:21.266Z,39.67
2023-12-18T02:06:50.059Z,37.00
2023-12-18T02:09:17.486Z,37.28
2023-12-18T02:11:48.574Z,31.20
2023-12-18T02:14:15.811Z,36.47
2023-12-18T02:16:43.081Z,32.42
2023-12-18T02:19:30.620Z,37.20
2023-12-18T02:21:59.189Z,33.38
2023-12-18T02:24:26.905Z,36.05
2023-12-18T02:26:56.161Z,32.85
2023-12-18T02:29:23.358Z,30.52
2023-12-18T02:31:50.622Z,32.90
2023-12-18T02:34:18.082Z,36.88
2023-12-18T02:36:45.481Z,31.92
2023-12-18T02:39:12.746Z,30.50
2023-12-18T02:41:40.244Z,32.38
2023-12-18T02:44:07.602Z,29.33
2023-12-18T02:46:34.872Z,37.20
2023-12-18T02:49:02.175Z,32.15
2023-12-18T02:51:29.428Z,33.67
2023-12-18T02:53:56.675Z,30.83
2023-12-18T02:56:24.700Z,35.22
2023-12-18T02:58:52.195Z,35.33
2023-12-18T03:01:19.605Z,32.17
2023-12-18T03:03:47.084Z,36.40
2023-12-18T03:06:14.497Z,32.83
2023-12-18T03:08:42.605Z,30.45
2023-12-18T03:11:10.947Z,33.85
2023-12-18T03:13:38.169Z,37.65
2023-12-18T03:16:05.813Z,33.97
2023-12-18T03:18:33.136Z,33.50
2023-12-18T03:21:00.561Z,30.95
2023-12-18T03:23:27.781Z,29.23
2023-12-18T03:25:55.090Z,24.25
2023-12-18T03:28:22.530Z,25.65
2023-12-18T03:30:49.804Z,26.10
2023-12-18T03:33:17.450Z,30.08
2023-12-18T03:35:44.713Z,25.27
2023-12-18T03:38:13.080Z,25.85
2023-12-18T03:43:25.838Z,24.65
2023-12-18T03:45:53.132Z,24.33
2023-12-18T03:48:21.171Z,24.55
2023-12-18T03:50:48.597Z,25.45
2023-12-18T03:53:15.859Z,27.08
2023-12-18T03:55:43.086Z,28.35
2023-12-18T03:58:10.416Z,29.20
2023-12-18T04:00:37.995Z,29.25
2023-12-18T04:03:06.078Z,31.48
2023-12-18T04:05:33.478Z,28.23
2023-12-18T04:08:01.122Z,27.15
2023-12-18T04:10:28.442Z,31.63
2023-12-18T04:12:55.767Z,30.63
2023-12-18T04:15:23.327Z,28.40
2023-12-18T04:17:50.949Z,28.67
2023-12-18T04:20:18.477Z,31.65
2023-12-18T04:22:45.734Z,33.22
2023-12-18T04:25:12.958Z,27.55
2023-12-18T04:27:40.542Z,28.83
2023-12-18T04:30:08.480Z,35.78
2023-12-18T04:32:35.837Z,38.28
2023-12-18T04:35:03.665Z,30.80
2023-12-18T04:37:30.988Z,31.70
2023-12-18T04:39:58.295Z,31.10
2023-12-18T04:42:25.686Z,31.83
2023-12-18T04:44:53.458Z,31.55
2023-12-18T04:47:20.721Z,31.77
2023-12-18T04:49:48.720Z,30.58
2023-12-18T04:52:15.992Z,29.45
2023-12-18T04:54:43.393Z,30.95
2023-12-18T04:59:55.431Z,36.00
2023-12-18T05:02:22.857Z,31.98
2023-12-18T05:04:50.395Z,25.25
2023-12-18T05:07:17.948Z,33.92
2023-12-18T05:09:48.235Z,31.55
2023-12-18T05:12:16.561Z,30.05
2023-12-18T05:14:43.819Z,31.80
2023-12-18T05:17:11.432Z,28.35
2023-12-18T05:19:38.795Z,33.72
2023-12-18T05:22:06.196Z,30.20
2023-12-18T05:24:33.511Z,28.25
2023-12-18T05:27:00.762Z,30.80
2023-12-18T05:29:28.002Z,32.22
2023-12-18T05:31:55.464Z,32.65
2023-12-18T05:34:22.809Z,30.23
2023-12-18T05:36:50.615Z,27.10
2023-12-18T05:39:17.926Z,30.75
2023-12-18T05:41:45.243Z,32.45
2023-12-18T05:44:12.480Z,31.45
2023-12-18T05:46:39.649Z,31.30
2023-12-18T05:49:07.784Z,28.23
2023-12-18T05:51:35.096Z,28.55
2023-12-18T05:54:02.676Z,27.70
2023-12-18T05:56:29.867Z,32.70
2023-12-18T05:58:58.842Z,28.38
2023-12-18T06:01:26.115Z,33.10
2023-12-18T06:03:53.473Z,24.85
2023-12-18T06:06:20.857Z,31.85
2023-12-18T06:08:48.141Z,31.10
2023-12-18T06:11:16.825Z,78.07
2023-12-18T06:13:44.267Z,69.20
2023-12-18T06:16:11.580Z,40.92
2023-12-18T06:18:39.299Z,37.80
2023-12-18T06:21:07.465Z,44.00
2023-12-18T06:23:34.877Z,156.20
2023-12-18T06:26:03.438Z,398.02
2023-12-18T06:28:31.214Z,270.92
2023-12-18T06:30:58.538Z,84.72
2023-12-18T06:33:26.146Z,48.63
2023-12-18T06:35:53.492Z,39.78
2023-12-18T06:38:20.826Z,37.75
2023-12-18T06:40:48.025Z,38.65
2023-12-18T06:43:15.269Z,37.25
2023-12-18T06:45:42.580Z,35.80
2023-12-18T06:48:09.974Z,31.63
2023-12-18T06:50:37.259Z,28.80
2023-12-18T06:53:04.597Z,29.65
2023-12-18T06:55:32.855Z,33.15
2023-12-18T06:58:00.079Z,30.33
2023-12-18T07:00:39.666Z,27.23
2023-12-18T07:03:09.048Z,28.85
2023-12-18T07:05:36.757Z,26.88
2023-12-18T07:08:04.368Z,30.73
2023-12-18T07:10:31.628Z,27.13
2023-12-18T07:12:58.908Z,30.55
2023-12-18T07:15:26.858Z,30.15
2023-12-18T07:17:54.519Z,30.52
2023-12-18T07:20:21.825Z,33.60
2023-12-18T07:22:49.214Z,31.90
2023-12-18T07:25:16.719Z,30.92
2023-12-18T07:27:46.068Z,28.42
2023-12-18T07:30:31.639Z,24.60
2023-12-18T07:32:59.112Z,25.67
2023-12-18T07:35:29.255Z,26.88
2023-12-18T07:37:56.586Z,28.02
2023-12-18T07:40:23.980Z,30.17
2023-12-18T07:42:51.294Z,33.53
2023-12-18T07:45:19.657Z,29.17
2023-12-18T07:47:46.950Z,36.15
2023-12-18T07:50:14.388Z,33.17
2023-12-18T07:52:41.855Z,34.38
2023-12-18T07:55:09.568Z,34.13
2023-12-18T07:57:36.931Z,31.40
2023-12-18T08:00:05.057Z,37.88
2023-12-18T08:02:32.352Z,31.90
2023-12-18T08:04:59.560Z,37.00
2023-12-18T08:07:26.757Z,35.78
2023-12-18T08:09:54.158Z,35.90
2023-12-18T08:12:21.513Z,31.42
2023-12-18T08:14:48.825Z,35.60
2023-12-18T08:17:16.621Z,37.70
2023-12-18T08:19:48.558Z,41.20
2023-12-18T08:22:16.423Z,44.22
2023-12-18T08:24:43.978Z,44.60
2023-12-18T08:27:11.359Z,40.78
2023-12-18T08:29:41.868Z,34.50
2023-12-18T08:34:36.772Z,39.60
2023-12-18T08:37:05.052Z,37.42
2023-12-18T08:39:32.513Z,40.40
2023-12-18T08:42:00.049Z,34.13
2023-12-18T08:44:27.317Z,38.88
2023-12-18T08:46:54.861Z,39.38
2023-12-18T08:49:22.340Z,38.45
2023-12-18T08:51:49.699Z,36.78
2023-12-18T08:54:17.056Z,39.10
2023-12-18T08:56:44.315Z,39.30
2023-12-18T08:59:12.398Z,37.03
2023-12-18T09:01:39.876Z,36.60
2023-12-18T09:04:08.157Z,41.15
2023-12-18T09:06:38.896Z,38.58
2023-12-18T09:09:06.808Z,40.55
2023-12-18T09:11:35.466Z,35.28
2023-12-18T09:14:04.813Z,39.03
2023-12-18T09:16:32.955Z,36.17
2023-12-18T09:19:00.777Z,34.05
2023-12-18T09:21:28.279Z,40.00
2023-12-18T09:23:55.574Z,36.65
2023-12-18T09:26:22.889Z,39.65
2023-12-18T09:28:50.294Z,42.25
2023-12-18T09:31:18.532Z,43.50
2023-12-18T09:33:46.816Z,39.42
2023-12-18T09:36:14.288Z,36.92
2023-12-18T09:38:42.058Z,35.55
2023-12-18T09:41:09.669Z,34.03
2023-12-18T09:43:37.307Z,35.08
2023-12-18T09:46:05.797Z,38.47
2023-12-18T09:48:33.754Z,38.15
2023-12-18T09:51:02.637Z,38.10
2023-12-18T09:53:29.988Z,34.53
2023-12-18T09:55:58.237Z,34.78
2023-12-18T09:58:25.710Z,39.40
2023-12-18T10:00:53.867Z,33.45
2023-12-18T10:03:21.356Z,31.40
2023-12-18T10:05:48.835Z,41.55
2023-12-18T10:08:16.320Z,38.97
2023-12-18T10:10:46.697Z,37.17
2023-12-18T10:13:15.377Z,44.70
2023-12-18T10:15:43.908Z,41.10
2023-12-18T10:18:12.088Z,40.92
2023-12-18T10:20:42.318Z,44.08
2023-12-18T10:23:09.678Z,47.17
2023-12-18T10:25:38.703Z,44.42
2023-12-18T10:28:07.577Z,46.15
2023-12-18T10:30:38.168Z,46.80
2023-12-18T10:35:40.635Z,49.40
2023-12-18T10:38:10.468Z,41.22
2023-12-18T10:40:39.125Z,42.58
2023-12-18T10:43:26.118Z,46.15
2023-12-18T10:45:55.457Z,43.00
2023-12-18T10:48:23.785Z,45.47
2023-12-18T10:50:53.292Z,46.20
2023-12-18T10:53:22.119Z,39.95
2023-12-18T10:55:50.522Z,39.50
2023-12-18T10:58:21.364Z,46.63
2023-12-18T11:00:50.639Z,39.95
2023-12-18T11:03:19.998Z,40.90
2023-12-18T11:05:50.455Z,42.50
2023-12-18T11:08:17.939Z,44.20
2023-12-18T11:10:46.352Z,41.42
2023-12-18T11:13:30.679Z,41.03
2023-12-18T11:16:18.420Z,43.22
2023-12-18T11:19:08.562Z,37.25
2023-12-18T11:21:43.381Z,41.38
2023-12-18T11:24:11.474Z,43.45
2023-12-18T11:26:39.554Z,41.80
2023-12-18T11:29:43.410Z,39.85
2023-12-18T11:32:45.134Z,36.55
2023-12-18T11:35:16.945Z,41.08
2023-12-18T11:37:50.484Z,37.63
2023-12-18T11:40:32.734Z,41.58
2023-12-18T11:43:00.452Z,36.17
2023-12-18T11:45:28.364Z,32.63
2023-12-18T11:48:02.210Z,33.17
2023-12-18T11:50:35.246Z,31.67
2023-12-18T11:53:06.788Z,32.15
2023-12-18T11:55:54.784Z,31.25
2023-12-18T11:58:26.958Z,39.83
2023-12-18T12:00:56.495Z,35.45
2023-12-18T12:03:23.907Z,32.50
2023-12-18T12:05:52.605Z,33.90
2023-12-18T12:08:20.106Z,31.27
2023-12-18T12:10:49.116Z,34.47
2023-12-18T12:13:20.945Z,30.70
2023-12-18T12:15:59.447Z,28.38
2023-12-18T12:18:31.969Z,33.58
2023-12-18T12:21:00.447Z,33.13
2023-12-18T12:23:28.774Z,34.13
2023-12-18T12:26:00.136Z,38.03
2023-12-18T12:28:30.894Z,34.35
2023-12-18T12:30:59.872Z,35.33
2023-12-18T12:33:39.643Z,31.52
2023-12-18T12:36:08.112Z,37.67
2023-12-18T12:38:41.216Z,33.33
2023-12-18T12:41:08.476Z,35.65
2023-12-18T12:43:35.736Z,35.80
2023-12-18T12:46:03.806Z,36.97
2023-12-18T12:48:32.847Z,45.00
2023-12-18T12:51:02.232Z,38.78
2023-12-18T12:53:32.036Z,41.33
2023-12-18T12:56:00.512Z,39.47
2023-12-18T12:58:34.779Z,43.05
2023-12-18T13:01:03.610Z,34.30
2023-12-18T13:03:31.737Z,40.03
2023-12-18T13:06:00.415Z,33.35
2023-12-18T13:08:27.696Z,35.42
2023-12-18T13:10:55.046Z,37.17
2023-12-18T13:13:22.514Z,38.75
2023-12-18T13:15:52.848Z,38.95
2023-12-18T13:18:20.373Z,35.90
2023-12-18T13:20:47.760Z,32.30
2023-12-18T13:23:15.772Z,36.80
2023-12-18T13:25:43.530Z,38.08
2023-12-18T13:28:11.119Z,36.08
2023-12-18T13:30:38.623Z,37.55
2023-12-18T13:33:06.098Z,39.75
2023-12-18T13:35:33.753Z,41.03
2023-12-18T13:38:01.258Z,45.75
2023-12-18T13:40:30.114Z,46.13
2023-12-18T13:42:57.572Z,59.30
2023-12-18T13:45:25.009Z,64.18
2023-12-18T13:47:53.353Z,56.17
2023-12-18T13:50:21.399Z,51.43
2023-12-18T13:52:50.048Z,53.20
2023-12-18T13:55:17.515Z,50.70
2023-12-18T13:57:48.846Z,53.00
2023-12-18T14:00:20.281Z,58.50
2023-12-18T14:02:49.449Z,59.83
2023-12-18T14:05:16.826Z,55.15
2023-12-18T14:07:44.370Z,56.45
2023-12-18T14:10:11.972Z,52.78
2023-12-18T14:12:39.321Z,56.10
2023-12-18T14:15:07.318Z,55.50
2023-12-18T14:17:34.836Z,60.40
2023-12-18T14:20:05.799Z,72.15
2023-12-18T14:22:34.418Z,63.70
2023-12-18T14:25:03.746Z,57.90
2023-12-18T14:27:33.659Z,56.22
2023-12-18T14:30:02.679Z,61.47
2023-12-18T14:32:29.967Z,56.47
2023-12-18T14:34:57.382Z,57.00
2023-12-18T14:37:24.948Z,58.90
2023-12-18T14:39:52.707Z,56.25
2023-12-18T14:42:20.004Z,54.80
2023-12-18T14:44:47.207Z,57.85
2023-12-18T14:47:14.509Z,62.17
2023-12-18T14:49:42.018Z,56.95
2023-12-18T14:52:09.486Z,58.22
2023-12-18T14:54:36.814Z,64.75
2023-12-18T14:57:04.457Z,63.35
2023-12-18T14:59:32.038Z,54.17
2023-12-18T15:02:00.815Z,63.97
2023-12-18T15:04:30.491Z,60.13
2023-12-18T15:06:59.610Z,63.42
2023-12-18T15:09:29.178Z,51.97
2023-12-18T15:11:57.096Z,53.95
2023-12-18T15:14:24.522Z,56.35
2023-12-18T15:16:51.814Z,59.15
2023-12-18T15:19:19.177Z,58.78
2023-12-18T15:21:46.507Z,51.97
2023-12-18T15:24:14.318Z,54.38
2023-12-18T15:26:41.661Z,56.88
2023-12-18T15:29:08.932Z,62.65
2023-12-18T15:31:36.565Z,57.30
2023-12-18T15:34:06.639Z,63.00
2023-12-18T15:36:34.783Z,62.35
2023-12-18T15:39:02.542Z,59.72
2023-12-18T15:41:32.526Z,59.45
2023-12-18T15:43:59.749Z,61.65
2023-12-18T15:46:27.058Z,57.28
2023-12-18T15:48:54.824Z,58.33
2023-12-18T15:51:22.392Z,58.95
2023-12-18T15:53:49.761Z,63.30
2023-12-18T15:56:17.166Z,62.47
2023-12-18T15:58:45.094Z,63.10
2023-12-18T16:01:15.675Z,65.30
2023-12-18T16:06:12.083Z,55.25
2023-12-18T16:08:39.576Z,59.33
2023-12-18T16:11:06.872Z,69.10
2023-12-18T16:13:34.171Z,70.75
2023-12-18T16:16:01.948Z,64.95
2023-12-18T16:18:29.619Z,62.10
2023-12-18T16:20:57.297Z,60.97
2023-12-18T16:23:24.534Z,70.10
2023-12-18T16:25:51.737Z,62.05
2023-12-18T16:28:19.143Z,63.42
2023-12-18T16:30:56.571Z,65.70
2023-12-18T16:33:25.726Z,73.30
2023-12-18T16:35:53.367Z,70.85
2023-12-18T16:38:20.953Z,73.15
2023-12-18T16:40:54.745Z,70.45
2023-12-18T16:43:24.997Z,74.47
2023-12-18T16:45:52.277Z,67.30
2023-12-18T16:48:19.748Z,73.03
2023-12-18T16:50:49.985Z,67.93
2023-12-18T16:53:17.274Z,69.32
2023-12-18T16:55:44.640Z,60.10
2023-12-18T16:58:11.899Z,59.70
2023-12-18T17:00:39.386Z,71.72
2023-12-18T17:03:06.909Z,65.68
2023-12-18T17:05:35.847Z,90.72
2023-12-18T17:08:04.269Z,158.07
2023-12-18T17:10:32.169Z,92.25
2023-12-18T17:12:59.501Z,78.65
2023-12-18T17:15:30.679Z,133.63
2023-12-18T17:17:58.471Z,200.73
2023-12-18T17:20:26.814Z,90.80
2023-12-18T17:22:54.323Z,74.80
2023-12-18T17:25:21.628Z,77.13
2023-12-18T17:27:49.404Z,81.80
2023-12-18T17:30:16.996Z,72.68
2023-12-18T17:32:44.545Z,100.63
2023-12-18T17:35:12.865Z,104.00
2023-12-18T17:37:40.059Z,92.20
2023-12-18T17:40:08.015Z,95.28
2023-12-18T17:42:35.316Z,89.05
2023-12-18T17:45:02.690Z,93.68
2023-12-18T17:47:34.513Z,90.65
2023-12-18T17:50:02.268Z,93.32
2023-12-18T17:52:29.847Z,89.07
2023-12-18T17:54:57.193Z,89.95
2023-12-18T17:57:24.487Z,96.47
2023-12-18T17:59:54.493Z,89.40
2023-12-18T18:02:23.782Z,91.95
2023-12-18T18:04:51.254Z,104.95
2023-12-18T18:07:18.805Z,92.30
2023-12-18T18:09:46.106Z,94.43
2023-12-18T18:12:14.216Z,90.78
2023-12-18T18:14:41.411Z,93.93
2023-12-18T18:17:08.694Z,102.25
2023-12-18T18:19:35.968Z,114.63
2023-12-18T18:22:04.724Z,113.63
2023-12-18T18:24:33.433Z,113.57
2023-12-18T18:27:08.912Z,100.13
2023-12-18T18:29:38.520Z,101.00
2023-12-18T18:32:06.971Z,98.05
2023-12-18T18:34:35.346Z,83.03
2023-12-18T18:37:02.861Z,88.95
2023-12-18T18:39:30.168Z,93.68
2023-12-18T18:41:57.408Z,106.13
2023-12-18T18:47:10.109Z,107.25
2023-12-18T18:49:37.392Z,117.32
2023-12-18T18:52:07.573Z,115.80
2023-12-18T18:57:19.668Z,104.82
2023-12-18T18:59:47.385Z,103.13
2023-12-18T19:02:15.715Z,126.78
2023-12-18T19:04:43.275Z,130.75
2023-12-18T19:07:10.823Z,111.18
2023-12-18T19:09:38.097Z,131.73
2023-12-18T19:12:05.581Z,128.82
2023-12-18T19:14:33.237Z,106.97
2023-12-18T19:17:05.221Z,123.50
2023-12-18T19:19:35.683Z,107.47
2023-12-18T19:22:03.619Z,110.75
2023-12-18T19:24:32.709Z,136.45
2023-12-18T19:27:00.023Z,136.20
2023-12-18T19:29:27.270Z,134.60
2023-12-18T19:31:55.595Z,134.55
2023-12-18T19:34:22.975Z,141.45
2023-12-18T19:36:50.561Z,152.10
2023-12-18T19:39:18.308Z,139.73
2023-12-18T19:41:45.608Z,140.20
2023-12-18T19:44:15.560Z,145.43
2023-12-18T19:46:42.853Z,134.43
2023-12-18T19:49:10.313Z,128.68
2023-12-18T19:51:39.300Z,130.85
2023-12-18T19:54:06.789Z,139.05
2023-12-18T19:56:34.172Z,133.18
2023-12-18T19:59:01.735Z,135.35
2023-12-18T20:01:29.118Z,147.38
2023-12-18T20:03:56.473Z,169.68
2023-12-18T20:06:25.169Z,150.50
2023-12-18T20:08:53.999Z,145.80
2023-12-18T20:11:21.430Z,141.45
2023-12-18T20:13:49.743Z,141.95
2023-12-18T20:16:17.333Z,153.23
2023-12-18T20:18:44.784Z,160.65
2023-12-18T20:21:12.167Z,165.38
2023-12-18T20:23:39.503Z,158.63
2023-12-18T20:26:07.564Z,145.98
2023-12-18T20:28:34.838Z,166.00
2023-12-18T20:31:03.191Z,148.73
2023-12-18T20:33:30.802Z,152.45
2023-12-18T20:35:58.331Z,151.10
2023-12-18T20:38:25.743Z,161.75
2023-12-18T20:40:53.003Z,179.10
2023-12-18T20:43:20.255Z,167.63
2023-12-18T20:45:51.347Z,167.23
2023-12-18T20:48:22.308Z,170.95
2023-12-18T20:50:52.779Z,221.40
2023-12-18T20:53:20.108Z,159.68
2023-12-18T20:55:47.614Z,139.85
2023-12-18T20:58:14.879Z,138.20
2023-12-18T21:00:42.445Z,138.95
2023-12-18T21:03:09.841Z,136.73
2023-12-18T21:05:37.600Z,121.75
2023-12-18T21:08:06.480Z,120.75
2023-12-18T21:10:34.454Z,105.35
2023-12-18T21:13:04.067Z,92.80
2023-12-18T21:15:31.392Z,101.28
2023-12-18T21:18:01.758Z,99.70
2023-12-18T21:20:29.412Z,101.65
2023-12-18T21:22:56.873Z,106.38
2023-12-18T21:25:24.160Z,102.68
2023-12-18T21:27:51.626Z,105.43
2023-12-18T21:30:19.312Z,112.22
2023-12-18T21:32:47.018Z,111.90
2023-12-18T21:35:14.725Z,98.95
2023-12-18T21:37:42.228Z,348.75
2023-12-18T21:40:09.979Z,141.13
2023-12-18T21:42:37.344Z,139.75
2023-12-18T21:45:06.131Z,121.95
2023-12-18T21:47:33.385Z,123.70
2023-12-18T21:50:00.848Z,109.63
2023-12-18T21:52:28.490Z,104.20
2023-12-18T21:54:57.025Z,106.05
2023-12-18T21:57:24.282Z,118.22
2023-12-18T21:59:51.613Z,114.88
2023-12-18T22:02:18.990Z,110.38
2023-12-18T22:04:46.306Z,122.70
2023-12-18T22:07:13.657Z,113.88
2023-12-18T22:09:40.962Z,96.47
2023-12-18T22:12:08.830Z,123.45
2023-12-18T22:14:36.176Z,117.13
2023-12-18T22:17:04.243Z,115.70
2023-12-18T22:19:32.106Z,106.25
2023-12-18T22:21:59.546Z,105.35
2023-12-18T22:24:27.181Z,128.77
2023-12-18T22:26:54.572Z,124.03
2023-12-18T22:29:21.791Z,122.85
2023-12-18T22:31:49.063Z,131.38
2023-12-18T22:34:16.515Z,128.95
2023-12-18T22:36:44.117Z,128.25
2023-12-18T22:39:12.171Z,131.80
2023-12-18T22:41:41.659Z,258.48
2023-12-18T22:44:09.597Z,234.10
2023-12-18T22:46:38.688Z,150.10
2023-12-18T22:49:06.194Z,127.88
2023-12-18T22:51:33.624Z,131.63
2023-12-18T22:54:00.977Z,116.65
2023-12-18T22:56:28.367Z,122.25
2023-12-18T22:58:56.212Z,122.65
2023-12-18T23:01:23.609Z,111.40
2023-12-18T23:03:51.184Z,110.47
2023-12-18T23:06:18.629Z,104.35
2023-12-18T23:08:46.317Z,105.63
2023-12-18T23:11:13.668Z,120.50
2023-12-18T23:13:42.243Z,109.82
2023-12-18T23:16:09.663Z,123.00
2023-12-18T23:18:37.077Z,109.10
2023-12-18T23:21:05.826Z,107.07
2023-12-18T23:23:33.671Z,107.68
2023-12-18T23:26:01.383Z,103.70
2023-12-18T23:28:29.832Z,107.30
2023-12-18T23:30:57.350Z,101.13
2023-12-18T23:33:30.682Z,99.13
2023-12-18T23:35:59.802Z,108.20
2023-12-18T23:38:27.560Z,209.60
2023-12-18T23:40:54.995Z,155.80
2023-12-18T23:43:22.294Z,132.25
2023-12-18T23:45:49.751Z,188.88
2023-12-18T23:48:17.714Z,139.82
2023-12-18T23:50:45.964Z,105.97
2023-12-18T23:53:13.966Z,94.93
2023-12-18T23:55:41.561Z,97.03
2023-12-18T23:58:08.838Z,96.35
